createdAt,value
2018-08-19T00:00:30.684Z,15.90
2018-08-19T00:03:28.448Z,15.84
2018-08-19T00:06:26.306Z,15.69
2018-08-19T00:09:24.403Z,15.61
2018-08-19T00:12:22.328Z,15.68
2018-08-19T00:15:20.156Z,15.70
2018-08-19T00:18:19.137Z,15.58
2018-08-19T00:21:17.138Z,15.58
2018-08-19T00:24:14.880Z,15.52
2018-08-19T00:27:12.907Z,15.44
2018-08-19T00:30:11.845Z,15.43
2018-08-19T00:33:09.859Z,15.49
2018-08-19T00:36:07.628Z,15.55
2018-08-19T00:39:05.321Z,15.38
2018-08-19T00:42:03.321Z,15.36
2018-08-19T00:45:01.303Z,15.35
2018-08-19T00:47:59.173Z,15.32
2018-08-19T00:50:56.936Z,15.29
2018-08-19T00:53:54.611Z,15.25
2018-08-19T00:56:54.643Z,15.16
2018-08-19T00:59:52.063Z,15.12
2018-08-19T01:02:50.013Z,15.21
2018-08-19T01:05:47.783Z,15.22
2018-08-19T01:08:45.684Z,15.23
2018-08-19T01:11:49.808Z,15.17
2018-08-19T01:14:47.824Z,15.01
2018-08-19T01:17:47.935Z,14.92
2018-08-19T01:20:45.701Z,14.94
2018-08-19T01:23:43.796Z,14.96
2018-08-19T01:26:42.783Z,14.85
2018-08-19T01:29:51.233Z,14.82
2018-08-19T01:32:49.227Z,14.92
2018-08-19T01:35:46.968Z,14.87
2018-08-19T01:38:44.960Z,14.75
2018-08-19T01:41:42.834Z,14.64
2018-08-19T01:44:40.960Z,14.60
2018-08-19T01:47:38.884Z,14.62
2018-08-19T01:50:37.944Z,14.57
2018-08-19T01:53:35.770Z,14.54
2018-08-19T01:56:33.495Z,14.50
2018-08-19T01:59:31.221Z,14.40
2018-08-19T02:02:29.145Z,14.35
2018-08-19T02:05:27.843Z,14.36
2018-08-19T02:08:25.692Z,14.33
2018-08-19T02:11:32.787Z,14.39
2018-08-19T02:14:30.772Z,14.32
2018-08-19T02:17:28.818Z,14.39
2018-08-19T02:20:27.024Z,14.37
2018-08-19T02:23:25.096Z,14.25
2018-08-19T02:26:28.048Z,14.17
2018-08-19T02:29:37.946Z,14.20
2018-08-19T02:32:36.015Z,14.27
2018-08-19T02:35:33.065Z,14.29
2018-08-19T02:38:31.024Z,14.23
2018-08-19T02:41:29.028Z,14.25
2018-08-19T02:44:27.073Z,14.08
2018-08-19T02:47:24.979Z,14.12
2018-08-19T02:50:23.109Z,14.16
2018-08-19T02:53:21.296Z,14.05
2018-08-19T02:56:19.739Z,14.01
2018-08-19T02:59:17.736Z,13.83
2018-08-19T03:02:15.725Z,13.67
2018-08-19T03:05:13.408Z,13.72
2018-08-19T03:08:11.372Z,13.72
2018-08-19T03:11:09.311Z,13.80
2018-08-19T03:14:07.322Z,13.88
2018-08-19T03:17:05.029Z,13.80
2018-08-19T03:20:05.014Z,13.73
2018-08-19T03:23:03.115Z,13.62
2018-08-19T03:26:01.128Z,13.73
2018-08-19T03:28:59.132Z,13.75
2018-08-19T03:32:01.927Z,13.81
2018-08-19T03:35:01.851Z,13.85
2018-08-19T03:38:00.773Z,13.85
2018-08-19T03:40:58.524Z,13.63
2018-08-19T03:44:01.429Z,13.51
2018-08-19T03:46:59.196Z,13.42
2018-08-19T03:49:58.095Z,13.43
2018-08-19T03:52:57.875Z,13.33
2018-08-19T03:55:54.989Z,13.33
2018-08-19T03:58:54.013Z,13.41
2018-08-19T04:01:58.992Z,13.44
2018-08-19T04:04:56.324Z,13.45
2018-08-19T04:07:54.215Z,13.39
2018-08-19T04:10:53.309Z,13.50
2018-08-19T04:13:50.566Z,13.61
2018-08-19T04:16:48.544Z,13.47
2018-08-19T04:19:47.557Z,13.41
2018-08-19T04:22:45.504Z,13.33
2018-08-19T04:25:43.400Z,13.44
2018-08-19T04:28:41.237Z,13.36
2018-08-19T04:31:39.259Z,13.45
2018-08-19T04:34:37.296Z,13.52
2018-08-19T04:37:36.322Z,13.32
2018-08-19T04:40:34.294Z,13.24
2018-08-19T04:43:34.264Z,13.32
2018-08-19T04:46:32.243Z,13.58
2018-08-19T04:49:31.288Z,13.91
2018-08-19T04:52:29.476Z,14.27
2018-08-19T04:55:27.337Z,14.73
2018-08-19T04:58:25.279Z,15.41
2018-08-19T05:01:23.155Z,16.06
2018-08-19T05:04:20.108Z,16.47
2018-08-19T05:07:18.119Z,16.82
2018-08-19T05:10:16.179Z,17.25
2018-08-19T05:13:15.048Z,17.47
2018-08-19T05:16:13.063Z,17.76
2018-08-19T05:19:11.023Z,18.04
2018-08-19T05:22:14.942Z,18.29
2018-08-19T05:25:12.913Z,18.57
2018-08-19T05:28:13.920Z,19.15
2018-08-19T05:31:11.712Z,19.43
2018-08-19T05:34:09.715Z,19.45
2018-08-19T05:37:08.616Z,19.53
2018-08-19T05:40:07.092Z,19.32
2018-08-19T05:43:04.999Z,19.28
2018-08-19T05:46:03.244Z,19.61
2018-08-19T05:49:06.257Z,19.82
2018-08-19T05:52:06.059Z,20.15
2018-08-19T05:55:04.992Z,20.75
2018-08-19T05:58:03.012Z,20.69
2018-08-19T06:01:07.261Z,21.20
2018-08-19T06:04:05.238Z,21.87
2018-08-19T06:07:08.155Z,21.87
2018-08-19T06:10:05.976Z,22.33
2018-08-19T06:13:04.019Z,22.88
2018-08-19T06:16:01.986Z,22.14
2018-08-19T06:18:59.915Z,22.27
2018-08-19T06:21:57.633Z,22.34
2018-08-19T06:24:55.461Z,22.21
2018-08-19T06:27:54.456Z,22.41
2018-08-19T06:30:52.377Z,22.04
2018-08-19T06:33:49.478Z,22.74
2018-08-19T06:36:46.699Z,22.92
2018-08-19T06:39:43.756Z,23.15
2018-08-19T06:42:41.740Z,23.64
2018-08-19T06:45:39.809Z,25.01
2018-08-19T06:48:37.078Z,25.68
2018-08-19T06:51:35.018Z,24.68
2018-08-19T06:54:32.424Z,24.80
2018-08-19T06:57:29.431Z,25.51
2018-08-19T07:00:32.654Z,24.25
2018-08-19T07:03:30.617Z,24.57
2018-08-19T07:06:31.709Z,25.27
2018-08-19T07:09:29.669Z,26.23
2018-08-19T07:12:30.721Z,28.02
2018-08-19T07:15:29.629Z,28.20
2018-08-19T07:18:28.734Z,28.81
2018-08-19T07:21:26.561Z,26.74
2018-08-19T07:24:24.344Z,26.98
2018-08-19T07:27:23.200Z,27.56
2018-08-19T07:30:21.135Z,29.46
2018-08-19T07:33:20.036Z,28.32
2018-08-19T07:36:17.916Z,28.32
2018-08-19T07:39:15.773Z,28.69
2018-08-19T07:42:13.703Z,28.75
2018-08-19T07:45:11.689Z,28.70
2018-08-19T07:48:09.572Z,28.72
2018-08-19T07:51:07.360Z,29.51
2018-08-19T07:54:05.217Z,29.60
2018-08-19T07:57:02.999Z,30.90
2018-08-19T08:00:00.119Z,30.11
2018-08-19T08:02:58.196Z,30.40
2018-08-19T08:05:56.254Z,28.47
2018-08-19T08:08:53.930Z,29.99
2018-08-19T08:11:51.951Z,30.52
2018-08-19T08:14:55.654Z,29.43
2018-08-19T08:17:53.481Z,29.58
2018-08-19T08:20:51.388Z,31.11
2018-08-19T08:23:51.126Z,30.30
2018-08-19T08:26:59.123Z,30.87
2018-08-19T08:29:56.903Z,29.89
2018-08-19T08:32:56.652Z,29.62
2018-08-19T08:35:59.699Z,31.60
2018-08-19T08:38:57.659Z,32.29
2018-08-19T08:41:54.800Z,31.78
2018-08-19T08:44:52.772Z,32.24
2018-08-19T08:47:51.310Z,29.29
2018-08-19T08:50:48.571Z,29.15
2018-08-19T08:53:52.664Z,30.13
2018-08-19T08:56:50.704Z,31.07
2018-08-19T08:59:48.721Z,30.51
2018-08-19T09:02:46.739Z,31.35
2018-08-19T09:05:44.619Z,31.93
2018-08-19T09:08:42.658Z,31.20
2018-08-19T09:11:40.593Z,30.69
2018-08-19T09:14:38.767Z,30.34
2018-08-19T09:17:36.836Z,31.42
2018-08-19T09:20:34.919Z,31.15
2018-08-19T09:23:32.868Z,30.67
2018-08-19T09:26:30.921Z,29.91
2018-08-19T09:29:29.030Z,30.50
2018-08-19T09:32:27.157Z,31.13
2018-08-19T09:35:24.975Z,30.89
2018-08-19T09:38:26.987Z,30.92
2018-08-19T09:41:24.648Z,28.73
2018-08-19T09:44:22.229Z,26.49
2018-08-19T09:47:19.940Z,26.95
2018-08-19T09:50:17.959Z,26.07
2018-08-19T09:53:16.014Z,25.64
2018-08-19T09:56:15.819Z,25.83
2018-08-19T09:59:13.938Z,26.06
2018-08-19T10:02:16.874Z,26.30
2018-08-19T10:05:18.367Z,25.56
2018-08-19T10:08:16.192Z,25.50
2018-08-19T10:11:14.274Z,25.33
2018-08-19T10:14:11.768Z,25.66
2018-08-19T10:17:09.726Z,25.67
2018-08-19T10:20:07.932Z,25.89
2018-08-19T10:23:07.864Z,25.54
2018-08-19T10:26:05.642Z,25.73
2018-08-19T10:29:03.330Z,25.48
2018-08-19T10:32:09.231Z,25.42
2018-08-19T10:35:11.120Z,25.29
2018-08-19T10:38:09.472Z,25.34
2018-08-19T10:41:12.470Z,25.58
2018-08-19T10:44:11.267Z,25.42
2018-08-19T10:47:09.142Z,25.40
2018-08-19T10:50:15.140Z,25.95
2018-08-19T10:53:13.111Z,26.51
2018-08-19T10:56:13.720Z,27.45
2018-08-19T10:59:11.617Z,28.71
2018-08-19T11:02:09.478Z,30.30
2018-08-19T11:05:11.414Z,30.42
2018-08-19T11:08:09.415Z,30.06
2018-08-19T11:11:07.238Z,30.11
2018-08-19T11:14:05.368Z,29.35
2018-08-19T11:17:03.056Z,29.62
2018-08-19T11:20:03.628Z,30.33
2018-08-19T11:23:02.442Z,29.86
2018-08-19T11:26:01.745Z,29.86
2018-08-19T11:29:02.520Z,30.48
2018-08-19T11:32:00.431Z,30.47
2018-08-19T11:34:58.224Z,29.48
2018-08-19T11:37:56.127Z,28.67
2018-08-19T11:40:54.071Z,26.60
2018-08-19T11:43:53.967Z,25.63
2018-08-19T11:46:51.827Z,25.19
2018-08-19T11:49:49.847Z,25.90
2018-08-19T11:52:50.896Z,25.82
2018-08-19T11:55:48.747Z,25.94
2018-08-19T11:58:55.660Z,25.94
2018-08-19T12:01:53.587Z,26.26
2018-08-19T12:04:51.689Z,26.45
2018-08-19T12:07:49.651Z,26.68
2018-08-19T12:10:46.843Z,26.71
2018-08-19T12:13:44.262Z,26.58
2018-08-19T12:16:41.778Z,26.46
2018-08-19T12:19:39.387Z,26.32
2018-08-19T12:22:37.357Z,26.43
2018-08-19T12:25:35.370Z,26.56
2018-08-19T12:28:32.816Z,26.53
2018-08-19T12:31:31.626Z,26.29
2018-08-19T12:34:29.293Z,26.51
2018-08-19T12:37:28.187Z,26.46
2018-08-19T12:40:26.021Z,26.45
2018-08-19T12:43:23.932Z,26.79
2018-08-19T12:46:22.744Z,27.09
2018-08-19T12:49:20.580Z,27.03
2018-08-19T12:52:20.611Z,27.03
2018-08-19T12:55:19.524Z,27.02
2018-08-19T12:58:17.241Z,27.15
2018-08-19T13:01:15.057Z,27.03
2018-08-19T13:04:12.852Z,27.31
2018-08-19T13:07:25.837Z,27.28
2018-08-19T13:10:23.991Z,27.40
2018-08-19T13:13:21.611Z,27.48
2018-08-19T13:16:19.591Z,27.27
2018-08-19T13:19:17.565Z,27.18
2018-08-19T13:22:15.420Z,27.32
2018-08-19T13:25:13.307Z,27.39
2018-08-19T13:28:11.161Z,27.41
2018-08-19T13:31:09.235Z,27.43
2018-08-19T13:34:07.428Z,27.50
2018-08-19T13:37:04.871Z,27.33
2018-08-19T13:40:02.709Z,27.36
2018-08-19T13:43:00.749Z,27.48
2018-08-19T13:45:58.571Z,27.22
2018-08-19T13:48:56.432Z,27.26
2018-08-19T13:51:54.511Z,27.05
2018-08-19T13:54:56.583Z,26.92
2018-08-19T13:57:54.457Z,27.26
2018-08-19T14:00:52.536Z,27.25
2018-08-19T14:03:50.742Z,27.22
2018-08-19T14:06:49.662Z,27.16
2018-08-19T14:09:47.343Z,27.17
2018-08-19T14:12:45.157Z,27.14
2018-08-19T14:15:43.155Z,27.24
2018-08-19T14:18:40.879Z,27.27
2018-08-19T14:21:38.920Z,27.05
2018-08-19T14:24:36.757Z,27.12
2018-08-19T14:27:34.607Z,27.08
2018-08-19T14:30:32.515Z,27.13
2018-08-19T14:33:31.350Z,27.18
2018-08-19T14:36:29.228Z,27.23
2018-08-19T14:39:28.240Z,27.10
2018-08-19T14:42:26.019Z,27.10
2018-08-19T14:45:24.040Z,27.03
2018-08-19T14:48:21.957Z,26.95
2018-08-19T14:51:20.103Z,27.03
2018-08-19T14:54:31.248Z,27.18
2018-08-19T14:57:29.211Z,27.21
2018-08-19T15:00:29.451Z,27.08
2018-08-19T15:03:27.435Z,27.08
2018-08-19T15:06:25.435Z,27.17
2018-08-19T15:09:32.473Z,27.25
2018-08-19T15:12:32.674Z,27.28
2018-08-19T15:15:30.555Z,27.37
2018-08-19T15:18:28.640Z,27.11
2018-08-19T15:21:25.874Z,27.16
2018-08-19T15:24:23.847Z,27.08
2018-08-19T15:27:21.600Z,27.12
2018-08-19T15:30:24.428Z,27.07
2018-08-19T15:33:22.999Z,27.01
2018-08-19T15:36:21.313Z,27.05
2018-08-19T15:39:19.873Z,27.19
2018-08-19T15:42:17.872Z,27.20
2018-08-19T15:45:15.893Z,27.08
2018-08-19T15:48:13.816Z,27.15
2018-08-19T15:51:17.005Z,27.07
2018-08-19T15:54:15.710Z,27.10
2018-08-19T15:57:15.692Z,27.01
2018-08-19T16:00:13.002Z,26.98
2018-08-19T16:03:10.156Z,26.80
2018-08-19T16:06:08.021Z,26.83
2018-08-19T16:09:14.083Z,26.82
2018-08-19T16:12:11.885Z,26.81
2018-08-19T16:15:08.981Z,26.67
2018-08-19T16:18:06.514Z,26.58
2018-08-19T16:21:10.395Z,26.66
2018-08-19T16:24:09.415Z,26.55
2018-08-19T16:27:07.464Z,26.52
2018-08-19T16:30:05.453Z,26.49
2018-08-19T16:33:02.763Z,26.52
2018-08-19T16:36:00.006Z,26.41
2018-08-19T16:38:57.803Z,26.31
2018-08-19T16:41:55.611Z,26.28
2018-08-19T16:44:53.518Z,26.16
2018-08-19T16:47:51.524Z,26.15
2018-08-19T16:50:49.464Z,26.15
2018-08-19T16:53:47.336Z,26.00
2018-08-19T16:56:45.175Z,25.90
2018-08-19T16:59:43.027Z,25.85
2018-08-19T17:02:40.848Z,25.83
2018-08-19T17:05:50.842Z,25.85
2018-08-19T17:08:49.870Z,25.79
2018-08-19T17:11:48.055Z,25.72
2018-08-19T17:14:46.174Z,25.60
2018-08-19T17:17:44.069Z,25.54
2018-08-19T17:20:41.698Z,25.45
2018-08-19T17:23:40.803Z,25.42
2018-08-19T17:26:38.619Z,25.36
2018-08-19T17:29:36.595Z,25.31
2018-08-19T17:32:34.631Z,25.19
2018-08-19T17:35:32.649Z,25.11
2018-08-19T17:38:30.674Z,25.03
2018-08-19T17:41:28.596Z,24.99
2018-08-19T17:44:26.424Z,24.90
2018-08-19T17:47:24.144Z,24.82
2018-08-19T17:50:27.313Z,24.83
2018-08-19T17:53:26.229Z,24.74
2018-08-19T17:56:24.127Z,24.60
2018-08-19T17:59:22.905Z,24.57
2018-08-19T18:02:23.377Z,24.50
2018-08-19T18:05:22.880Z,24.39
2018-08-19T18:08:20.727Z,24.35
2018-08-19T18:11:18.856Z,24.27
2018-08-19T18:14:19.646Z,24.22
2018-08-19T18:17:17.693Z,24.16
2018-08-19T18:20:25.708Z,24.08
2018-08-19T18:23:29.551Z,23.90
2018-08-19T18:26:27.133Z,23.89
2018-08-19T18:29:24.885Z,23.81
2018-08-19T18:32:23.128Z,23.68
2018-08-19T18:35:22.439Z,23.60
2018-08-19T18:38:25.441Z,23.52
2018-08-19T18:41:41.194Z,23.49
2018-08-19T18:44:40.170Z,23.35
2018-08-19T18:47:38.119Z,23.26
2018-08-19T18:50:36.473Z,23.21
2018-08-19T18:53:34.732Z,23.13
2018-08-19T18:56:33.574Z,23.04
2018-08-19T18:59:32.598Z,22.96
2018-08-19T19:02:30.512Z,22.98
2018-08-19T19:06:05.532Z,22.91
2018-08-19T19:09:03.254Z,22.81
2018-08-19T19:12:03.141Z,22.77
2018-08-19T19:15:01.218Z,22.61
2018-08-19T19:18:00.329Z,22.59
2018-08-19T19:21:04.895Z,22.50
2018-08-19T19:24:05.692Z,22.52
2018-08-19T19:27:04.413Z,22.39
2018-08-19T19:30:08.902Z,22.25
2018-08-19T19:33:11.352Z,22.24
2018-08-19T19:36:16.832Z,22.14
2018-08-19T19:39:14.349Z,22.16
2018-08-19T19:42:16.343Z,22.00
2018-08-19T19:45:14.135Z,21.91
2018-08-19T19:48:12.041Z,21.83
2018-08-19T19:51:09.993Z,21.77
2018-08-19T19:54:07.467Z,21.62
2018-08-19T19:57:06.712Z,21.50
2018-08-19T20:00:04.092Z,21.37
2018-08-19T20:03:01.176Z,21.29
2018-08-19T20:05:59.476Z,21.18
2018-08-19T20:08:57.497Z,21.05
2018-08-19T20:11:55.263Z,20.91
2018-08-19T20:14:56.355Z,20.83
2018-08-19T20:17:54.205Z,20.80
2018-08-19T20:20:52.304Z,20.75
2018-08-19T20:23:50.115Z,20.72
2018-08-19T20:26:48.162Z,20.71
2018-08-19T20:29:46.744Z,20.64
2018-08-19T20:32:44.750Z,20.54
2018-08-19T20:35:42.444Z,20.50
2018-08-19T20:38:40.351Z,20.45
2018-08-19T20:41:38.187Z,20.29
2018-08-19T20:44:36.201Z,20.20
2018-08-19T20:47:34.275Z,20.13
2018-08-19T20:50:31.871Z,20.06
2018-08-19T20:53:29.690Z,19.93
2018-08-19T20:56:27.593Z,19.88
2018-08-19T20:59:29.466Z,19.87
2018-08-19T21:02:27.424Z,19.82
2018-08-19T21:05:25.279Z,19.80
2018-08-19T21:08:28.267Z,19.80
2018-08-19T21:11:26.458Z,19.74
2018-08-19T21:14:24.430Z,19.69
2018-08-19T21:17:24.318Z,19.65
2018-08-19T21:20:21.679Z,19.61
2018-08-19T21:23:19.833Z,19.65
2018-08-19T21:26:17.178Z,19.65
2018-08-19T21:29:14.380Z,19.68
2018-08-19T21:32:12.345Z,19.63
2018-08-19T21:35:09.558Z,19.58
2018-08-19T21:38:08.293Z,19.52
2018-08-19T21:41:08.473Z,19.51
2018-08-19T21:44:06.329Z,19.44
2018-08-19T21:47:04.312Z,19.44
2018-08-19T21:50:05.082Z,19.45
2018-08-19T21:53:34.044Z,19.44
2018-08-19T21:56:31.927Z,19.38
2018-08-19T21:59:31.039Z,19.41
2018-08-19T22:02:34.812Z,19.39
2018-08-19T22:05:32.807Z,19.38
2018-08-19T22:08:30.651Z,19.38
2018-08-19T22:11:27.903Z,19.33
2018-08-19T22:14:25.200Z,19.38
2018-08-19T22:17:22.531Z,19.32
2018-08-19T22:20:20.556Z,19.35
2018-08-19T22:23:18.619Z,19.29
2018-08-19T22:26:16.984Z,19.25
2018-08-19T22:29:27.620Z,19.29
2018-08-19T22:32:25.524Z,19.25
2018-08-19T22:35:23.174Z,19.27
2018-08-19T22:38:25.467Z,19.33
2018-08-19T22:41:23.326Z,19.46
2018-08-19T22:44:21.262Z,19.59
2018-08-19T22:47:19.065Z,19.66
2018-08-19T22:50:17.068Z,19.74
2018-08-19T22:53:14.275Z,19.88
2018-08-19T22:56:12.398Z,19.99
2018-08-19T22:59:10.436Z,20.02
2018-08-19T23:02:08.334Z,20.15
2018-08-19T23:05:06.261Z,20.39
2018-08-19T23:08:04.405Z,20.39
2018-08-19T23:11:03.496Z,20.57
2018-08-19T23:14:13.551Z,20.63
2018-08-19T23:17:11.487Z,20.74
2018-08-19T23:20:11.249Z,20.69
2018-08-19T23:23:09.088Z,20.69
2018-08-19T23:26:07.079Z,20.77
2018-08-19T23:29:05.056Z,20.86
2018-08-19T23:32:02.732Z,20.89
2018-08-19T23:35:00.666Z,20.91
2018-08-19T23:37:58.668Z,20.95
2018-08-19T23:40:56.509Z,20.84
2018-08-19T23:43:54.412Z,20.93
2018-08-19T23:46:52.249Z,20.91
2018-08-19T23:49:50.143Z,20.93
2018-08-19T23:52:48.040Z,20.86
2018-08-19T23:55:47.019Z,20.95
2018-08-19T23:58:44.891Z,20.87
